sensor_id;sensor_type;location;lat;lon;timestamp;pressure;altitude;pressure_sealevel;temperature;humidity
8318;BME280;4196;48.926;8.964;2023-04-26T00:01:09;99129.63;;;5.65;100.00
8318;BME280;4196;48.926;8.964;2023-04-26T00:03:55;99100.03;;;5.40;100.00
8318;BME280;4196;48.926;8.964;2023-04-26T00:06:42;99084.44;;;5.29;100.00
8318;BME280;4196;48.926;8.964;2023-04-26T00:09:29;99135.41;;;5.54;100.00
8318;BME280;4196;48.926;8.964;2023-04-26T00:12:16;99132.78;;;5.51;100.00
8318;BME280;4196;48.926;8.964;2023-04-26T00:15:03;99129.28;;;5.46;100.00
8318;BME280;4196;48.926;8.964;2023-04-26T00:17:49;99103.97;;;5.19;100.00
8318;BME280;4196;48.926;8.964;2023-04-26T00:20:37;99078.78;;;5.01;100.00
8318;BME280;4196;48.926;8.964;2023-04-26T00:23:24;99117.72;;;5.23;100.00
8318;BME280;4196;48.926;8.964;2023-04-26T00:26:11;99071.97;;;5.03;100.00
8318;BME280;4196;48.926;8.964;2023-04-26T00:28:57;99151.53;;;5.46;100.00
8318;BME280;4196;48.926;8.964;2023-04-26T00:31:44;99158.47;;;5.51;100.00
8318;BME280;4196;48.926;8.964;2023-04-26T00:34:32;99147.88;;;5.35;100.00
8318;BME280;4196;48.926;8.964;2023-04-26T00:37:19;99132.34;;;5.27;100.00
8318;BME280;4196;48.926;8.964;2023-04-26T00:40:07;99117.53;;;5.15;100.00
8318;BME280;4196;48.926;8.964;2023-04-26T00:42:57;99108.19;;;5.19;100.00
8318;BME280;4196;48.926;8.964;2023-04-26T00:45:44;99142.47;;;5.21;100.00
8318;BME280;4196;48.926;8.964;2023-04-26T00:48:32;99141.41;;;5.11;100.00
8318;BME280;4196;48.926;8.964;2023-04-26T00:51:19;99131.69;;;4.96;100.00
8318;BME280;4196;48.926;8.964;2023-04-26T00:54:06;99123.50;;;4.72;100.00
8318;BME280;4196;48.926;8.964;2023-04-26T00:56:53;99138.84;;;4.70;100.00
8318;BME280;4196;48.926;8.964;2023-04-26T00:59:40;99142.91;;;4.60;100.00
8318;BME280;4196;48.926;8.964;2023-04-26T01:02:27;99130.50;;;4.41;100.00
8318;BME280;4196;48.926;8.964;2023-04-26T01:05:13;99160.38;;;4.41;100.00
8318;BME280;4196;48.926;8.964;2023-04-26T01:08:02;99121.19;;;4.08;100.00
8318;BME280;4196;48.926;8.964;2023-04-26T01:10:50;99158.31;;;4.26;100.00
8318;BME280;4196;48.926;8.964;2023-04-26T01:13:37;99142.59;;;4.10;100.00
8318;BME280;4196;48.926;8.964;2023-04-26T01:16:25;99099.16;;;3.80;100.00
8318;BME280;4196;48.926;8.964;2023-04-26T01:19:13;99111.91;;;3.79;100.00
8318;BME280;4196;48.926;8.964;2023-04-26T01:22:00;99122.22;;;3.82;100.00
8318;BME280;4196;48.926;8.964;2023-04-26T01:24:49;99148.97;;;3.92;100.00
8318;BME280;4196;48.926;8.964;2023-04-26T01:27:36;99124.56;;;3.73;100.00
8318;BME280;4196;48.926;8.964;2023-04-26T01:30:22;99166.16;;;3.97;100.00
8318;BME280;4196;48.926;8.964;2023-04-26T01:33:09;99108.75;;;3.89;100.00
8318;BME280;4196;48.926;8.964;2023-04-26T01:35:55;99122.59;;;3.97;100.00
8318;BME280;4196;48.926;8.964;2023-04-26T01:38:42;99147.72;;;4.10;100.00
8318;BME280;4196;48.926;8.964;2023-04-26T01:41:28;99125.41;;;4.06;100.00
8318;BME280;4196;48.926;8.964;2023-04-26T01:44:15;99116.69;;;4.00;100.00
8318;BME280;4196;48.926;8.964;2023-04-26T01:47:01;99159.44;;;4.37;100.00
8318;BME280;4196;48.926;8.964;2023-04-26T01:49:48;99133.47;;;4.22;100.00
8318;BME280;4196;48.926;8.964;2023-04-26T01:52:35;99134.97;;;4.14;100.00
8318;BME280;4196;48.926;8.964;2023-04-26T01:55:21;99150.03;;;4.36;100.00
8318;BME280;4196;48.926;8.964;2023-04-26T01:58:07;99159.75;;;4.49;100.00
8318;BME280;4196;48.926;8.964;2023-04-26T02:00:55;99120.97;;;4.35;100.00
8318;BME280;4196;48.926;8.964;2023-04-26T02:03:41;99151.06;;;4.44;100.00
8318;BME280;4196;48.926;8.964;2023-04-26T02:06:29;99155.50;;;4.50;100.00
8318;BME280;4196;48.926;8.964;2023-04-26T02:09:17;99102.88;;;4.28;100.00
8318;BME280;4196;48.926;8.964;2023-04-26T02:12:03;99133.31;;;4.52;100.00
8318;BME280;4196;48.926;8.964;2023-04-26T02:14:49;99118.06;;;4.58;100.00
8318;BME280;4196;48.926;8.964;2023-04-26T02:17:37;99111.84;;;4.48;100.00
8318;BME280;4196;48.926;8.964;2023-04-26T02:20:23;99131.06;;;4.66;100.00
8318;BME280;4196;48.926;8.964;2023-04-26T02:23:11;99121.81;;;4.72;100.00
8318;BME280;4196;48.926;8.964;2023-04-26T02:25:57;99134.97;;;4.89;100.00
8318;BME280;4196;48.926;8.964;2023-04-26T02:28:44;99121.03;;;4.78;100.00
8318;BME280;4196;48.926;8.964;2023-04-26T02:31:31;99153.00;;;4.92;100.00
8318;BME280;4196;48.926;8.964;2023-04-26T02:34:18;99133.84;;;4.76;100.00
8318;BME280;4196;48.926;8.964;2023-04-26T02:37:05;99133.94;;;4.81;100.00
8318;BME280;4196;48.926;8.964;2023-04-26T02:39:52;99157.19;;;4.87;100.00
8318;BME280;4196;48.926;8.964;2023-04-26T02:42:39;99129.97;;;4.56;100.00
8318;BME280;4196;48.926;8.964;2023-04-26T02:45:26;99077.94;;;4.22;100.00
8318;BME280;4196;48.926;8.964;2023-04-26T02:48:12;99134.56;;;4.33;100.00
8318;BME280;4196;48.926;8.964;2023-04-26T02:50:59;99139.59;;;4.28;100.00
8318;BME280;4196;48.926;8.964;2023-04-26T02:53:46;99131.50;;;4.11;100.00
8318;BME280;4196;48.926;8.964;2023-04-26T02:56:33;99139.38;;;4.19;100.00
8318;BME280;4196;48.926;8.964;2023-04-26T02:59:19;99133.78;;;3.99;100.00
8318;BME280;4196;48.926;8.964;2023-04-26T03:02:06;99140.34;;;3.90;100.00
8318;BME280;4196;48.926;8.964;2023-04-26T03:04:54;99126.31;;;3.74;100.00
8318;BME280;4196;48.926;8.964;2023-04-26T03:07:41;99156.28;;;3.78;100.00
8318;BME280;4196;48.926;8.964;2023-04-26T03:10:27;99158.66;;;3.72;100.00
8318;BME280;4196;48.926;8.964;2023-04-26T03:13:14;99120.41;;;3.45;100.00
8318;BME280;4196;48.926;8.964;2023-04-26T03:16:00;99146.38;;;3.58;100.00
8318;BME280;4196;48.926;8.964;2023-04-26T03:18:48;99160.75;;;3.53;100.00
8318;BME280;4196;48.926;8.964;2023-04-26T03:21:35;99119.75;;;3.20;100.00
8318;BME280;4196;48.926;8.964;2023-04-26T03:24:22;99167.56;;;3.53;100.00
8318;BME280;4196;48.926;8.964;2023-04-26T03:27:09;99125.41;;;3.40;100.00
8318;BME280;4196;48.926;8.964;2023-04-26T03:29:56;99100.72;;;3.42;100.00
8318;BME280;4196;48.926;8.964;2023-04-26T03:32:43;99157.31;;;3.84;100.00
8318;BME280;4196;48.926;8.964;2023-04-26T03:35:29;99156.75;;;3.96;100.00
8318;BME280;4196;48.926;8.964;2023-04-26T03:38:16;99101.63;;;3.76;100.00
8318;BME280;4196;48.926;8.964;2023-04-26T03:41:03;99151.72;;;3.99;100.00
8318;BME280;4196;48.926;8.964;2023-04-26T03:43:50;99136.53;;;4.08;100.00
8318;BME280;4196;48.926;8.964;2023-04-26T03:46:36;99132.25;;;4.06;100.00
8318;BME280;4196;48.926;8.964;2023-04-26T03:49:23;99107.25;;;3.97;100.00
8318;BME280;4196;48.926;8.964;2023-04-26T03:52:09;99091.59;;;3.85;100.00
8318;BME280;4196;48.926;8.964;2023-04-26T03:54:56;99149.88;;;4.30;100.00
8318;BME280;4196;48.926;8.964;2023-04-26T03:57:42;99141.31;;;4.29;100.00
8318;BME280;4196;48.926;8.964;2023-04-26T04:00:29;99152.69;;;4.39;100.00
8318;BME280;4196;48.926;8.964;2023-04-26T04:03:15;99163.22;;;4.51;100.00
8318;BME280;4196;48.926;8.964;2023-04-26T04:06:02;99160.88;;;4.60;100.00
8318;BME280;4196;48.926;8.964;2023-04-26T04:08:48;99137.56;;;4.51;100.00
8318;BME280;4196;48.926;8.964;2023-04-26T04:11:35;99154.91;;;4.62;100.00
8318;BME280;4196;48.926;8.964;2023-04-26T04:14:21;99154.06;;;4.63;100.00
8318;BME280;4196;48.926;8.964;2023-04-26T04:17:08;99130.78;;;4.53;100.00
8318;BME280;4196;48.926;8.964;2023-04-26T04:19:54;99123.97;;;4.55;100.00
8318;BME280;4196;48.926;8.964;2023-04-26T04:22:41;99145.50;;;4.62;100.00
8318;BME280;4196;48.926;8.964;2023-04-26T04:25:27;99156.78;;;4.69;100.00
8318;BME280;4196;48.926;8.964;2023-04-26T04:28:17;99162.09;;;4.78;100.00
8318;BME280;4196;48.926;8.964;2023-04-26T04:31:04;99158.72;;;4.79;100.00
8318;BME280;4196;48.926;8.964;2023-04-26T04:33:50;99139.59;;;4.65;100.00
8318;BME280;4196;48.926;8.964;2023-04-26T04:36:37;99145.06;;;4.81;100.00
8318;BME280;4196;48.926;8.964;2023-04-26T04:39:26;99157.91;;;4.81;100.00
8318;BME280;4196;48.926;8.964;2023-04-26T04:42:13;99167.44;;;4.87;100.00
8318;BME280;4196;48.926;8.964;2023-04-26T04:44:59;99128.66;;;4.75;100.00
8318;BME280;4196;48.926;8.964;2023-04-26T04:47:47;99158.81;;;4.85;100.00
8318;BME280;4196;48.926;8.964;2023-04-26T04:50:33;99142.63;;;4.86;100.00
8318;BME280;4196;48.926;8.964;2023-04-26T04:53:20;99149.56;;;4.92;100.00
8318;BME280;4196;48.926;8.964;2023-04-26T04:56:07;99132.16;;;4.78;100.00
8318;BME280;4196;48.926;8.964;2023-04-26T04:58:54;99178.19;;;5.12;100.00
8318;BME280;4196;48.926;8.964;2023-04-26T05:01:41;99150.81;;;5.11;100.00
8318;BME280;4196;48.926;8.964;2023-04-26T05:04:31;99191.31;;;5.24;100.00
8318;BME280;4196;48.926;8.964;2023-04-26T05:07:20;99163.56;;;5.06;100.00
8318;BME280;4196;48.926;8.964;2023-04-26T05:10:13;99192.78;;;5.13;100.00
8318;BME280;4196;48.926;8.964;2023-04-26T05:12:59;99195.28;;;5.09;100.00
8318;BME280;4196;48.926;8.964;2023-04-26T05:15:46;99178.97;;;5.07;100.00
8318;BME280;4196;48.926;8.964;2023-04-26T05:18:32;99177.88;;;4.96;100.00
8318;BME280;4196;48.926;8.964;2023-04-26T05:21:20;99203.63;;;4.99;100.00
8318;BME280;4196;48.926;8.964;2023-04-26T05:24:06;99165.41;;;4.74;100.00
8318;BME280;4196;48.926;8.964;2023-04-26T05:26:54;99192.69;;;4.70;100.00
8318;BME280;4196;48.926;8.964;2023-04-26T05:30:06;99186.78;;;4.73;100.00
8318;BME280;4196;48.926;8.964;2023-04-26T05:33:13;99177.81;;;4.93;100.00
8318;BME280;4196;48.926;8.964;2023-04-26T05:36:08;99212.88;;;5.32;100.00
8318;BME280;4196;48.926;8.964;2023-04-26T05:38:54;99192.34;;;5.32;100.00
8318;BME280;4196;48.926;8.964;2023-04-26T05:41:41;99220.88;;;5.46;100.00
8318;BME280;4196;48.926;8.964;2023-04-26T05:44:28;99192.47;;;5.40;100.00
8318;BME280;4196;48.926;8.964;2023-04-26T05:47:14;99187.38;;;5.41;100.00
8318;BME280;4196;48.926;8.964;2023-04-26T05:50:00;99222.09;;;5.65;100.00
8318;BME280;4196;48.926;8.964;2023-04-26T05:52:47;99224.88;;;5.75;100.00
8318;BME280;4196;48.926;8.964;2023-04-26T05:55:33;99232.13;;;5.95;100.00
8318;BME280;4196;48.926;8.964;2023-04-26T05:58:20;99211.63;;;5.99;100.00
8318;BME280;4196;48.926;8.964;2023-04-26T06:01:08;99195.41;;;6.00;100.00
8318;BME280;4196;48.926;8.964;2023-04-26T06:03:54;99239.63;;;6.31;100.00
8318;BME280;4196;48.926;8.964;2023-04-26T06:06:49;99226.81;;;6.34;100.00
8318;BME280;4196;48.926;8.964;2023-04-26T06:09:35;99231.13;;;6.35;100.00
8318;BME280;4196;48.926;8.964;2023-04-26T06:12:22;99230.19;;;6.32;100.00
8318;BME280;4196;48.926;8.964;2023-04-26T06:15:10;99232.06;;;6.40;100.00
8318;BME280;4196;48.926;8.964;2023-04-26T06:17:58;99216.59;;;6.37;100.00
8318;BME280;4196;48.926;8.964;2023-04-26T06:20:45;99235.66;;;6.51;100.00
8318;BME280;4196;48.926;8.964;2023-04-26T06:23:31;99225.66;;;6.68;100.00
8318;BME280;4196;48.926;8.964;2023-04-26T06:26:19;99249.38;;;7.05;100.00
8318;BME280;4196;48.926;8.964;2023-04-26T06:29:05;99247.09;;;7.26;100.00
8318;BME280;4196;48.926;8.964;2023-04-26T06:31:51;99202.88;;;7.60;100.00
8318;BME280;4196;48.926;8.964;2023-04-26T06:34:41;99224.28;;;8.36;100.00
8318;BME280;4196;48.926;8.964;2023-04-26T06:37:29;99251.38;;;8.86;100.00
8318;BME280;4196;48.926;8.964;2023-04-26T06:40:15;99210.88;;;8.77;100.00
8318;BME280;4196;48.926;8.964;2023-04-26T06:43:02;99238.69;;;9.21;100.00
8318;BME280;4196;48.926;8.964;2023-04-26T06:46:02;99237.94;;;9.39;100.00
8318;BME280;4196;48.926;8.964;2023-04-26T06:48:52;99200.72;;;9.03;98.07
8318;BME280;4196;48.926;8.964;2023-04-26T06:51:39;99222.22;;;9.04;99.70
8318;BME280;4196;48.926;8.964;2023-04-26T06:54:28;99213.41;;;8.71;98.47
8318;BME280;4196;48.926;8.964;2023-04-26T06:57:14;99252.22;;;8.86;95.32
8318;BME280;4196;48.926;8.964;2023-04-26T07:00:01;99219.13;;;8.36;96.79
8318;BME280;4196;48.926;8.964;2023-04-26T07:02:48;99237.91;;;8.23;98.49
8318;BME280;4196;48.926;8.964;2023-04-26T07:05:35;99243.91;;;8.23;99.16
8318;BME280;4196;48.926;8.964;2023-04-26T07:08:21;99192.91;;;7.93;98.35
8318;BME280;4196;48.926;8.964;2023-04-26T07:11:09;99247.38;;;8.22;100.00
8318;BME280;4196;48.926;8.964;2023-04-26T07:13:55;99237.88;;;8.18;100.00
8318;BME280;4196;48.926;8.964;2023-04-26T07:16:42;99186.00;;;7.91;100.00
8318;BME280;4196;48.926;8.964;2023-04-26T07:19:30;99222.34;;;8.14;100.00
8318;BME280;4196;48.926;8.964;2023-04-26T07:22:16;99226.81;;;8.33;100.00
8318;BME280;4196;48.926;8.964;2023-04-26T07:25:03;99228.50;;;8.31;100.00
8318;BME280;4196;48.926;8.964;2023-04-26T07:27:50;99204.31;;;8.15;100.00
8318;BME280;4196;48.926;8.964;2023-04-26T07:30:37;99219.97;;;8.37;97.67
8318;BME280;4196;48.926;8.964;2023-04-26T07:33:23;99166.50;;;8.19;98.40
8318;BME280;4196;48.926;8.964;2023-04-26T07:36:10;99221.84;;;8.47;94.15
8318;BME280;4196;48.926;8.964;2023-04-26T07:38:57;99220.97;;;8.50;93.94
8318;BME280;4196;48.926;8.964;2023-04-26T07:41:43;99212.09;;;8.24;93.54
8318;BME280;4196;48.926;8.964;2023-04-26T07:44:29;99225.22;;;8.41;92.27
8318;BME280;4196;48.926;8.964;2023-04-26T07:47:16;99221.72;;;8.38;93.56
8318;BME280;4196;48.926;8.964;2023-04-26T07:50:02;99214.06;;;8.44;86.44
8318;BME280;4196;48.926;8.964;2023-04-26T07:52:49;99227.97;;;8.64;81.67
8318;BME280;4196;48.926;8.964;2023-04-26T07:55:36;99198.78;;;8.76;79.23
8318;BME280;4196;48.926;8.964;2023-04-26T07:58:22;99218.66;;;8.86;81.50
8318;BME280;4196;48.926;8.964;2023-04-26T08:01:09;99200.66;;;8.95;80.98
8318;BME280;4196;48.926;8.964;2023-04-26T08:03:56;99220.56;;;9.13;81.13
8318;BME280;4196;48.926;8.964;2023-04-26T08:06:44;99205.94;;;9.17;80.11
8318;BME280;4196;48.926;8.964;2023-04-26T08:09:33;99218.75;;;8.99;79.86
8318;BME280;4196;48.926;8.964;2023-04-26T08:12:19;99210.16;;;9.00;78.04
8318;BME280;4196;48.926;8.964;2023-04-26T08:15:06;99195.53;;;9.03;74.45
8318;BME280;4196;48.926;8.964;2023-04-26T08:17:53;99217.97;;;9.15;72.50
8318;BME280;4196;48.926;8.964;2023-04-26T08:20:40;99188.75;;;9.25;74.65
8318;BME280;4196;48.926;8.964;2023-04-26T08:23:26;99232.00;;;9.64;72.69
8318;BME280;4196;48.926;8.964;2023-04-26T08:26:13;99174.13;;;9.30;68.66
8318;BME280;4196;48.926;8.964;2023-04-26T08:28:59;99190.63;;;9.61;66.83
8318;BME280;4196;48.926;8.964;2023-04-26T08:31:46;99228.66;;;9.98;64.19
8318;BME280;4196;48.926;8.964;2023-04-26T08:34:32;99235.59;;;10.17;65.31
8318;BME280;4196;48.926;8.964;2023-04-26T08:37:18;99204.59;;;10.45;62.88
8318;BME280;4196;48.926;8.964;2023-04-26T08:40:06;99229.63;;;10.44;59.17
8318;BME280;4196;48.926;8.964;2023-04-26T08:42:55;99226.16;;;10.40;62.61
8318;BME280;4196;48.926;8.964;2023-04-26T08:45:44;99229.59;;;10.30;63.84
8318;BME280;4196;48.926;8.964;2023-04-26T08:48:33;99223.56;;;10.25;64.32
8318;BME280;4196;48.926;8.964;2023-04-26T08:51:22;99227.03;;;10.44;64.20
8318;BME280;4196;48.926;8.964;2023-04-26T08:54:09;99196.81;;;10.31;64.58
8318;BME280;4196;48.926;8.964;2023-04-26T08:56:58;99227.06;;;10.72;59.64
8318;BME280;4196;48.926;8.964;2023-04-26T08:59:45;99221.00;;;10.86;60.38
8318;BME280;4196;48.926;8.964;2023-04-26T09:02:33;99187.34;;;10.79;60.76
8318;BME280;4196;48.926;8.964;2023-04-26T09:05:20;99211.44;;;11.07;59.84
8318;BME280;4196;48.926;8.964;2023-04-26T09:08:16;99217.41;;;11.36;60.58
8318;BME280;4196;48.926;8.964;2023-04-26T09:11:03;99183.84;;;10.94;57.55
8318;BME280;4196;48.926;8.964;2023-04-26T09:13:49;99182.06;;;11.11;59.34
8318;BME280;4196;48.926;8.964;2023-04-26T09:16:37;99213.09;;;11.32;59.71
8318;BME280;4196;48.926;8.964;2023-04-26T09:19:40;99201.88;;;11.30;58.81
8318;BME280;4196;48.926;8.964;2023-04-26T09:22:34;99200.03;;;11.55;54.03
8318;BME280;4196;48.926;8.964;2023-04-26T09:25:29;99203.47;;;11.65;54.50
8318;BME280;4196;48.926;8.964;2023-04-26T09:28:20;99191.66;;;10.69;54.68
8318;BME280;4196;48.926;8.964;2023-04-26T09:31:07;99142.28;;;11.27;53.00
8318;BME280;4196;48.926;8.964;2023-04-26T09:34:00;99170.50;;;11.90;52.29
8318;BME280;4196;48.926;8.964;2023-04-26T09:36:48;99196.75;;;12.66;52.97
8318;BME280;4196;48.926;8.964;2023-04-26T09:39:36;99191.19;;;13.07;52.65
8318;BME280;4196;48.926;8.964;2023-04-26T09:42:23;99157.13;;;13.30;52.48
8318;BME280;4196;48.926;8.964;2023-04-26T09:45:10;99156.00;;;13.51;49.73
8318;BME280;4196;48.926;8.964;2023-04-26T09:51:10;99173.13;;;13.67;49.20
8318;BME280;4196;48.926;8.964;2023-04-26T09:53:59;99173.06;;;13.72;46.65
8318;BME280;4196;48.926;8.964;2023-04-26T09:56:58;99190.81;;;14.07;47.96
8318;BME280;4196;48.926;8.964;2023-04-26T09:59:50;99184.56;;;14.17;46.77
8318;BME280;4196;48.926;8.964;2023-04-26T10:02:41;99160.38;;;14.09;44.82
8318;BME280;4196;48.926;8.964;2023-04-26T10:05:27;99169.75;;;14.22;48.43
8318;BME280;4196;48.926;8.964;2023-04-26T10:08:18;99174.53;;;14.50;49.46
8318;BME280;4196;48.926;8.964;2023-04-26T10:11:05;99149.59;;;14.34;45.05
8318;BME280;4196;48.926;8.964;2023-04-26T10:13:58;99177.09;;;13.96;44.57
8318;BME280;4196;48.926;8.964;2023-04-26T10:16:44;99160.53;;;13.98;44.18
8318;BME280;4196;48.926;8.964;2023-04-26T10:19:33;99162.22;;;14.04;45.62
8318;BME280;4196;48.926;8.964;2023-04-26T10:22:22;99153.00;;;14.36;46.12
8318;BME280;4196;48.926;8.964;2023-04-26T10:25:10;99175.44;;;14.46;43.11
8318;BME280;4196;48.926;8.964;2023-04-26T10:27:56;99117.59;;;13.68;42.02
8318;BME280;4196;48.926;8.964;2023-04-26T10:30:56;99146.97;;;13.78;43.29
8318;BME280;4196;48.926;8.964;2023-04-26T10:33:43;99136.75;;;13.64;42.37
8318;BME280;4196;48.926;8.964;2023-04-26T10:36:29;99117.84;;;13.50;46.27
8318;BME280;4196;48.926;8.964;2023-04-26T10:39:18;99141.47;;;13.35;42.77
8318;BME280;4196;48.926;8.964;2023-04-26T10:42:27;99148.53;;;13.20;44.73
8318;BME280;4196;48.926;8.964;2023-04-26T10:45:26;99135.91;;;13.62;48.00
8318;BME280;4196;48.926;8.964;2023-04-26T10:48:28;99145.50;;;14.17;46.46
8318;BME280;4196;48.926;8.964;2023-04-26T10:51:16;99113.13;;;14.34;42.85
8318;BME280;4196;48.926;8.964;2023-04-26T10:54:02;99122.94;;;14.18;41.71
8318;BME280;4196;48.926;8.964;2023-04-26T10:56:49;99146.47;;;14.66;44.90
8318;BME280;4196;48.926;8.964;2023-04-26T10:59:36;99146.94;;;14.86;43.15
8318;BME280;4196;48.926;8.964;2023-04-26T11:02:51;99139.78;;;14.99;41.85
8318;BME280;4196;48.926;8.964;2023-04-26T11:05:53;99112.25;;;14.83;41.05
8318;BME280;4196;48.926;8.964;2023-04-26T11:08:40;99112.66;;;15.08;40.21
8318;BME280;4196;48.926;8.964;2023-04-26T11:11:28;99135.91;;;15.18;39.24
8318;BME280;4196;48.926;8.964;2023-04-26T11:14:17;99148.78;;;15.26;43.37
8318;BME280;4196;48.926;8.964;2023-04-26T11:17:05;99130.31;;;15.35;41.32
8318;BME280;4196;48.926;8.964;2023-04-26T11:19:51;99105.75;;;15.45;43.39
8318;BME280;4196;48.926;8.964;2023-04-26T11:22:39;99128.19;;;15.14;41.82
8318;BME280;4196;48.926;8.964;2023-04-26T11:25:27;99120.00;;;15.31;44.88
8318;BME280;4196;48.926;8.964;2023-04-26T11:28:14;99106.03;;;15.33;42.62
8318;BME280;4196;48.926;8.964;2023-04-26T11:31:02;99112.78;;;15.43;42.27
8318;BME280;4196;48.926;8.964;2023-04-26T11:33:49;99101.88;;;15.65;42.41
8318;BME280;4196;48.926;8.964;2023-04-26T11:36:37;99095.47;;;15.80;42.12
8318;BME280;4196;48.926;8.964;2023-04-26T11:39:23;99089.41;;;15.78;43.15
8318;BME280;4196;48.926;8.964;2023-04-26T11:42:11;99089.19;;;15.48;44.03
8318;BME280;4196;48.926;8.964;2023-04-26T11:44:58;99069.78;;;15.60;46.96
8318;BME280;4196;48.926;8.964;2023-04-26T11:47:46;99081.06;;;15.60;41.67
8318;BME280;4196;48.926;8.964;2023-04-26T11:50:34;99061.81;;;15.67;44.33
8318;BME280;4196;48.926;8.964;2023-04-26T11:53:21;99047.50;;;15.84;39.91
8318;BME280;4196;48.926;8.964;2023-04-26T11:56:18;99079.84;;;15.78;39.47
8318;BME280;4196;48.926;8.964;2023-04-26T11:59:05;99082.81;;;15.61;39.36
8318;BME280;4196;48.926;8.964;2023-04-26T12:01:52;99063.44;;;15.31;40.01
8318;BME280;4196;48.926;8.964;2023-04-26T12:04:39;99081.19;;;15.56;42.06
8318;BME280;4196;48.926;8.964;2023-04-26T12:07:36;99082.69;;;15.67;39.27
8318;BME280;4196;48.926;8.964;2023-04-26T12:10:34;99087.00;;;15.70;39.79
8318;BME280;4196;48.926;8.964;2023-04-26T12:13:21;99060.13;;;16.02;42.69
8318;BME280;4196;48.926;8.964;2023-04-26T12:16:12;99031.94;;;16.48;41.37
8318;BME280;4196;48.926;8.964;2023-04-26T12:19:11;99075.28;;;16.89;42.15
8318;BME280;4196;48.926;8.964;2023-04-26T12:21:58;99041.66;;;16.75;39.00
8318;BME280;4196;48.926;8.964;2023-04-26T12:24:45;99064.41;;;16.72;41.43
8318;BME280;4196;48.926;8.964;2023-04-26T12:27:33;99028.34;;;16.19;39.29
8318;BME280;4196;48.926;8.964;2023-04-26T12:30:19;99071.22;;;15.75;39.07
8318;BME280;4196;48.926;8.964;2023-04-26T12:33:19;99049.31;;;15.43;40.21
8318;BME280;4196;48.926;8.964;2023-04-26T12:36:09;99072.13;;;15.74;42.23
8318;BME280;4196;48.926;8.964;2023-04-26T12:38:57;99050.47;;;16.04;43.51
8318;BME280;4196;48.926;8.964;2023-04-26T12:41:44;99051.84;;;16.19;42.53
8318;BME280;4196;48.926;8.964;2023-04-26T12:44:31;99057.94;;;16.52;44.39
8318;BME280;4196;48.926;8.964;2023-04-26T12:47:17;99055.69;;;16.04;38.38
8318;BME280;4196;48.926;8.964;2023-04-26T12:50:04;99047.19;;;15.96;38.60
8318;BME280;4196;48.926;8.964;2023-04-26T12:52:51;99028.88;;;15.98;38.74
8318;BME280;4196;48.926;8.964;2023-04-26T12:55:37;99032.44;;;15.58;39.48
8318;BME280;4196;48.926;8.964;2023-04-26T12:58:24;99059.13;;;15.30;40.60
8318;BME280;4196;48.926;8.964;2023-04-26T13:01:12;99058.47;;;14.79;39.24
8318;BME280;4196;48.926;8.964;2023-04-26T13:04:01;99038.63;;;14.73;40.52
8318;BME280;4196;48.926;8.964;2023-04-26T13:06:50;99039.28;;;14.83;40.65
8318;BME280;4196;48.926;8.964;2023-04-26T13:09:37;99048.94;;;14.76;41.89
8318;BME280;4196;48.926;8.964;2023-04-26T13:12:23;99027.16;;;14.32;42.09
8318;BME280;4196;48.926;8.964;2023-04-26T13:15:10;99045.09;;;14.52;41.94
8318;BME280;4196;48.926;8.964;2023-04-26T13:17:56;99028.56;;;14.53;42.55
8318;BME280;4196;48.926;8.964;2023-04-26T13:20:43;99027.91;;;14.39;43.08
8318;BME280;4196;48.926;8.964;2023-04-26T13:23:30;99039.28;;;14.36;41.93
8318;BME280;4196;48.926;8.964;2023-04-26T13:26:17;99007.56;;;14.14;43.49
8318;BME280;4196;48.926;8.964;2023-04-26T13:29:03;99032.03;;;14.04;42.27
8318;BME280;4196;48.926;8.964;2023-04-26T13:31:50;99010.25;;;14.08;43.01
8318;BME280;4196;48.926;8.964;2023-04-26T13:34:37;99037.19;;;14.57;41.73
8318;BME280;4196;48.926;8.964;2023-04-26T13:37:24;99003.53;;;14.43;41.73
8318;BME280;4196;48.926;8.964;2023-04-26T13:40:12;99055.22;;;15.11;39.88
8318;BME280;4196;48.926;8.964;2023-04-26T13:42:58;99045.19;;;14.91;41.03
8318;BME280;4196;48.926;8.964;2023-04-26T13:45:44;99043.50;;;14.88;41.63
8318;BME280;4196;48.926;8.964;2023-04-26T13:48:31;99033.81;;;14.95;41.29
8318;BME280;4196;48.926;8.964;2023-04-26T13:51:18;99027.00;;;14.88;41.38
8318;BME280;4196;48.926;8.964;2023-04-26T13:54:05;99021.91;;;14.82;42.19
8318;BME280;4196;48.926;8.964;2023-04-26T13:56:51;99042.47;;;14.97;41.79
8318;BME280;4196;48.926;8.964;2023-04-26T13:59:38;99022.72;;;14.85;42.96
8318;BME280;4196;48.926;8.964;2023-04-26T14:02:25;99021.53;;;15.00;40.46
8318;BME280;4196;48.926;8.964;2023-04-26T14:05:12;99022.03;;;14.76;40.14
8318;BME280;4196;48.926;8.964;2023-04-26T14:07:59;99017.88;;;14.65;42.31
8318;BME280;4196;48.926;8.964;2023-04-26T14:10:46;99040.09;;;14.85;41.57
8318;BME280;4196;48.926;8.964;2023-04-26T14:13:32;99013.84;;;14.49;43.06
8318;BME280;4196;48.926;8.964;2023-04-26T14:16:19;99033.13;;;14.39;43.30
8318;BME280;4196;48.926;8.964;2023-04-26T14:19:05;99010.31;;;14.05;42.81
8318;BME280;4196;48.926;8.964;2023-04-26T14:21:52;99032.06;;;14.01;44.17
8318;BME280;4196;48.926;8.964;2023-04-26T14:24:38;99004.00;;;13.67;44.61
8318;BME280;4196;48.926;8.964;2023-04-26T14:27:25;99010.41;;;13.99;42.72
8318;BME280;4196;48.926;8.964;2023-04-26T14:30:12;98982.25;;;13.71;42.47
8318;BME280;4196;48.926;8.964;2023-04-26T14:32:59;99025.16;;;14.00;44.05
8318;BME280;4196;48.926;8.964;2023-04-26T14:35:45;99003.63;;;13.90;43.63
8318;BME280;4196;48.926;8.964;2023-04-26T14:38:32;99003.81;;;14.27;45.19
8318;BME280;4196;48.926;8.964;2023-04-26T14:41:18;99002.34;;;14.61;45.84
8318;BME280;4196;48.926;8.964;2023-04-26T14:44:05;99026.81;;;14.98;41.70
8318;BME280;4196;48.926;8.964;2023-04-26T14:46:52;99019.44;;;15.17;44.00
8318;BME280;4196;48.926;8.964;2023-04-26T14:49:39;99001.06;;;15.59;43.85
8318;BME280;4196;48.926;8.964;2023-04-26T14:52:25;99006.00;;;15.72;40.76
8318;BME280;4196;48.926;8.964;2023-04-26T14:55:17;98993.53;;;15.08;39.80
8318;BME280;4196;48.926;8.964;2023-04-26T14:58:04;99018.47;;;14.80;41.80
8318;BME280;4196;48.926;8.964;2023-04-26T15:00:51;99027.25;;;14.76;43.83
8318;BME280;4196;48.926;8.964;2023-04-26T15:03:38;99005.53;;;14.75;43.03
8318;BME280;4196;48.926;8.964;2023-04-26T15:06:25;98992.66;;;14.67;46.30
8318;BME280;4196;48.926;8.964;2023-04-26T15:09:12;98994.31;;;14.71;44.01
8318;BME280;4196;48.926;8.964;2023-04-26T15:11:59;99014.63;;;14.99;43.30
8318;BME280;4196;48.926;8.964;2023-04-26T15:14:45;99001.91;;;14.82;44.14
8318;BME280;4196;48.926;8.964;2023-04-26T15:17:32;99007.03;;;14.42;42.81